sensor_id;sensor_type;location;lat;lon;timestamp;P1;durP1;ratioP1;P2;durP2;ratioP2
3006;SDS011;1513;47.650;10.720;2023-11-21T00:01:58;6.00;;;2.53;;
3006;SDS011;1513;47.650;10.720;2023-11-21T00:04:24;4.83;;;2.20;;
3006;SDS011;1513;47.650;10.720;2023-11-21T00:06:54;3.60;;;2.10;;
3006;SDS011;1513;47.650;10.720;2023-11-21T00:09:20;5.40;;;2.50;;
3006;SDS011;1513;47.650;10.720;2023-11-21T00:11:47;4.83;;;1.83;;
3006;SDS011;1513;47.650;10.720;2023-11-21T00:14:13;5.53;;;1.30;;
3006;SDS011;1513;47.650;10.720;2023-11-21T00:16:42;0.80;;;0.80;;
3006;SDS011;1513;47.650;10.720;2023-11-21T00:19:09;2.90;;;1.10;;
3006;SDS011;1513;47.650;10.720;2023-11-21T00:21:35;3.70;;;1.50;;
3006;SDS011;1513;47.650;10.720;2023-11-21T00:24:01;4.63;;;0.87;;
3006;SDS011;1513;47.650;10.720;2023-11-21T00:26:28;6.80;;;1.63;;
3006;SDS011;1513;47.650;10.720;2023-11-21T00:29:00;11.43;;;1.93;;
3006;SDS011;1513;47.650;10.720;2023-11-21T00:31:27;4.10;;;1.00;;
3006;SDS011;1513;47.650;10.720;2023-11-21T00:33:53;5.70;;;1.30;;
3006;SDS011;1513;47.650;10.720;2023-11-21T00:36:20;0.80;;;0.50;;
3006;SDS011;1513;47.650;10.720;2023-11-21T00:38:47;2.90;;;1.00;;
3006;SDS011;1513;47.650;10.720;2023-11-21T00:41:13;1.43;;;0.60;;
3006;SDS011;1513;47.650;10.720;2023-11-21T00:43:40;6.67;;;0.83;;
3006;SDS011;1513;47.650;10.720;2023-11-21T00:46:06;2.40;;;0.70;;
3006;SDS011;1513;47.650;10.720;2023-11-21T00:48:33;3.50;;;0.90;;
3006;SDS011;1513;47.650;10.720;2023-11-21T00:50:59;1.60;;;1.00;;
3006;SDS011;1513;47.650;10.720;2023-11-21T00:53:26;8.90;;;1.23;;
3006;SDS011;1513;47.650;10.720;2023-11-21T00:55:52;7.63;;;1.60;;
3006;SDS011;1513;47.650;10.720;2023-11-21T00:58:23;2.80;;;1.70;;
3006;SDS011;1513;47.650;10.720;2023-11-21T01:00:49;3.40;;;1.20;;
3006;SDS011;1513;47.650;10.720;2023-11-21T01:03:16;5.03;;;1.87;;
3006;SDS011;1513;47.650;10.720;2023-11-21T01:05:42;1.53;;;1.17;;
3006;SDS011;1513;47.650;10.720;2023-11-21T01:08:09;4.93;;;1.80;;
3006;SDS011;1513;47.650;10.720;2023-11-21T01:10:35;3.57;;;1.40;;
3006;SDS011;1513;47.650;10.720;2023-11-21T01:13:02;3.70;;;1.53;;
3006;SDS011;1513;47.650;10.720;2023-11-21T01:15:32;3.17;;;1.43;;
3006;SDS011;1513;47.650;10.720;2023-11-21T01:17:59;3.53;;;1.30;;
3006;SDS011;1513;47.650;10.720;2023-11-21T01:20:25;4.23;;;1.37;;
3006;SDS011;1513;47.650;10.720;2023-11-21T01:22:52;2.27;;;1.37;;
3006;SDS011;1513;47.650;10.720;2023-11-21T01:25:20;3.13;;;1.23;;
3006;SDS011;1513;47.650;10.720;2023-11-21T01:27:48;5.87;;;1.27;;
3006;SDS011;1513;47.650;10.720;2023-11-21T01:30:14;4.53;;;1.60;;
3006;SDS011;1513;47.650;10.720;2023-11-21T01:32:41;8.00;;;1.70;;
3006;SDS011;1513;47.650;10.720;2023-11-21T01:35:09;4.70;;;1.50;;
3006;SDS011;1513;47.650;10.720;2023-11-21T01:37:36;4.93;;;1.73;;
3006;SDS011;1513;47.650;10.720;2023-11-21T01:40:03;3.33;;;1.37;;
3006;SDS011;1513;47.650;10.720;2023-11-21T01:42:35;5.93;;;1.73;;
3006;SDS011;1513;47.650;10.720;2023-11-21T01:45:01;3.30;;;1.57;;
3006;SDS011;1513;47.650;10.720;2023-11-21T01:47:30;3.97;;;1.57;;
3006;SDS011;1513;47.650;10.720;2023-11-21T01:49:58;6.73;;;1.60;;
3006;SDS011;1513;47.650;10.720;2023-11-21T01:52:25;5.40;;;1.30;;
3006;SDS011;1513;47.650;10.720;2023-11-21T01:54:53;6.90;;;1.20;;
3006;SDS011;1513;47.650;10.720;2023-11-21T01:57:20;2.30;;;0.70;;
3006;SDS011;1513;47.650;10.720;2023-11-21T01:59:46;2.63;;;0.73;;
3006;SDS011;1513;47.650;10.720;2023-11-21T02:02:14;4.23;;;1.00;;
3006;SDS011;1513;47.650;10.720;2023-11-21T02:04:41;2.27;;;0.80;;
3006;SDS011;1513;47.650;10.720;2023-11-21T02:07:07;5.33;;;1.13;;
3006;SDS011;1513;47.650;10.720;2023-11-21T02:09:34;2.47;;;0.73;;
3006;SDS011;1513;47.650;10.720;2023-11-21T02:12:03;1.40;;;0.90;;
3006;SDS011;1513;47.650;10.720;2023-11-21T02:14:30;0.83;;;0.70;;
3006;SDS011;1513;47.650;10.720;2023-11-21T02:16:57;1.87;;;1.10;;
3006;SDS011;1513;47.650;10.720;2023-11-21T02:19:23;1.30;;;0.80;;
3006;SDS011;1513;47.650;10.720;2023-11-21T02:21:54;2.00;;;0.80;;
3006;SDS011;1513;47.650;10.720;2023-11-21T02:24:31;1.67;;;0.80;;
3006;SDS011;1513;47.650;10.720;2023-11-21T02:26:58;3.90;;;1.30;;
3006;SDS011;1513;47.650;10.720;2023-11-21T02:29:24;1.97;;;0.80;;
3006;SDS011;1513;47.650;10.720;2023-11-21T02:31:53;2.10;;;0.80;;
3006;SDS011;1513;47.650;10.720;2023-11-21T02:34:21;0.80;;;0.70;;
3006;SDS011;1513;47.650;10.720;2023-11-21T02:36:48;2.17;;;0.67;;
3006;SDS011;1513;47.650;10.720;2023-11-21T02:39:17;2.50;;;1.30;;
3006;SDS011;1513;47.650;10.720;2023-11-21T02:41:47;2.30;;;1.00;;
3006;SDS011;1513;47.650;10.720;2023-11-21T02:44:13;3.20;;;1.37;;
3006;SDS011;1513;47.650;10.720;2023-11-21T02:46:40;3.53;;;1.10;;
3006;SDS011;1513;47.650;10.720;2023-11-21T02:49:06;3.60;;;1.30;;
3006;SDS011;1513;47.650;10.720;2023-11-21T02:51:35;4.77;;;2.00;;
3006;SDS011;1513;47.650;10.720;2023-11-21T02:54:03;3.50;;;1.93;;
3006;SDS011;1513;47.650;10.720;2023-11-21T02:56:33;5.20;;;2.20;;
3006;SDS011;1513;47.650;10.720;2023-11-21T02:59:00;8.10;;;1.67;;
3006;SDS011;1513;47.650;10.720;2023-11-21T03:01:26;1.20;;;1.10;;
3006;SDS011;1513;47.650;10.720;2023-11-21T03:03:53;2.00;;;0.90;;
3006;SDS011;1513;47.650;10.720;2023-11-21T03:06:21;3.23;;;1.20;;
3006;SDS011;1513;47.650;10.720;2023-11-21T03:08:48;0.70;;;0.60;;
3006;SDS011;1513;47.650;10.720;2023-11-21T03:11:14;3.60;;;1.00;;
3006;SDS011;1513;47.650;10.720;2023-11-21T03:13:41;1.83;;;0.80;;
3006;SDS011;1513;47.650;10.720;2023-11-21T03:16:11;3.07;;;0.70;;
3006;SDS011;1513;47.650;10.720;2023-11-21T03:18:38;0.83;;;0.73;;
3006;SDS011;1513;47.650;10.720;2023-11-21T03:21:05;0.77;;;0.63;;
3006;SDS011;1513;47.650;10.720;2023-11-21T03:23:34;2.77;;;0.67;;
3006;SDS011;1513;47.650;10.720;2023-11-21T03:26:02;1.00;;;0.60;;
3006;SDS011;1513;47.650;10.720;2023-11-21T03:28:29;2.30;;;0.53;;
3006;SDS011;1513;47.650;10.720;2023-11-21T03:30:56;1.00;;;0.57;;
3006;SDS011;1513;47.650;10.720;2023-11-21T03:33:23;1.40;;;0.70;;
3006;SDS011;1513;47.650;10.720;2023-11-21T03:35:50;4.07;;;0.63;;
3006;SDS011;1513;47.650;10.720;2023-11-21T03:38:18;1.77;;;0.80;;
3006;SDS011;1513;47.650;10.720;2023-11-21T03:40:45;2.30;;;0.97;;
3006;SDS011;1513;47.650;10.720;2023-11-21T03:43:12;2.37;;;1.10;;
3006;SDS011;1513;47.650;10.720;2023-11-21T03:45:39;2.53;;;1.20;;
3006;SDS011;1513;47.650;10.720;2023-11-21T03:48:06;1.23;;;0.60;;
3006;SDS011;1513;47.650;10.720;2023-11-21T03:50:36;3.17;;;1.37;;
3006;SDS011;1513;47.650;10.720;2023-11-21T03:53:03;4.70;;;1.10;;
3006;SDS011;1513;47.650;10.720;2023-11-21T03:55:29;4.47;;;1.00;;
3006;SDS011;1513;47.650;10.720;2023-11-21T03:57:57;4.50;;;0.93;;
3006;SDS011;1513;47.650;10.720;2023-11-21T04:00:24;2.03;;;0.90;;
3006;SDS011;1513;47.650;10.720;2023-11-21T04:02:52;4.50;;;0.97;;
3006;SDS011;1513;47.650;10.720;2023-11-21T04:05:19;3.80;;;0.90;;
3006;SDS011;1513;47.650;10.720;2023-11-21T04:07:46;2.70;;;0.83;;
3006;SDS011;1513;47.650;10.720;2023-11-21T04:10:14;2.10;;;0.90;;
3006;SDS011;1513;47.650;10.720;2023-11-21T04:12:41;3.33;;;0.80;;
3006;SDS011;1513;47.650;10.720;2023-11-21T04:15:07;0.70;;;0.70;;
3006;SDS011;1513;47.650;10.720;2023-11-21T04:17:34;1.20;;;0.80;;
3006;SDS011;1513;47.650;10.720;2023-11-21T04:20:02;3.37;;;1.03;;
3006;SDS011;1513;47.650;10.720;2023-11-21T04:22:36;2.33;;;1.10;;
3006;SDS011;1513;47.650;10.720;2023-11-21T04:25:07;4.33;;;1.00;;
3006;SDS011;1513;47.650;10.720;2023-11-21T04:27:34;2.63;;;0.70;;
3006;SDS011;1513;47.650;10.720;2023-11-21T04:30:00;1.00;;;0.87;;
3006;SDS011;1513;47.650;10.720;2023-11-21T04:32:27;2.30;;;0.77;;
3006;SDS011;1513;47.650;10.720;2023-11-21T04:34:53;2.53;;;0.80;;
3006;SDS011;1513;47.650;10.720;2023-11-21T04:37:19;1.60;;;0.80;;
3006;SDS011;1513;47.650;10.720;2023-11-21T04:39:45;0.80;;;0.60;;
3006;SDS011;1513;47.650;10.720;2023-11-21T04:42:12;2.10;;;0.70;;
3006;SDS011;1513;47.650;10.720;2023-11-21T04:44:38;1.63;;;0.60;;
3006;SDS011;1513;47.650;10.720;2023-11-21T04:47:06;1.00;;;0.60;;
3006;SDS011;1513;47.650;10.720;2023-11-21T04:49:33;0.70;;;0.70;;
3006;SDS011;1513;47.650;10.720;2023-11-21T04:51:59;2.63;;;0.90;;
3006;SDS011;1513;47.650;10.720;2023-11-21T04:54:26;2.83;;;0.70;;
3006;SDS011;1513;47.650;10.720;2023-11-21T04:56:53;1.33;;;0.87;;
3006;SDS011;1513;47.650;10.720;2023-11-21T04:59:19;0.93;;;0.70;;
3006;SDS011;1513;47.650;10.720;2023-11-21T05:01:45;1.63;;;0.60;;
3006;SDS011;1513;47.650;10.720;2023-11-21T05:04:12;3.63;;;0.60;;
3006;SDS011;1513;47.650;10.720;2023-11-21T05:06:39;0.50;;;0.50;;
3006;SDS011;1513;47.650;10.720;2023-11-21T05:09:06;3.50;;;0.60;;
3006;SDS011;1513;47.650;10.720;2023-11-21T05:11:37;1.40;;;0.80;;
3006;SDS011;1513;47.650;10.720;2023-11-21T05:14:04;2.80;;;0.83;;
3006;SDS011;1513;47.650;10.720;2023-11-21T05:16:30;1.50;;;0.63;;
3006;SDS011;1513;47.650;10.720;2023-11-21T05:18:57;2.17;;;0.90;;
3006;SDS011;1513;47.650;10.720;2023-11-21T05:21:28;1.17;;;0.53;;
3006;SDS011;1513;47.650;10.720;2023-11-21T05:23:56;1.43;;;1.00;;
3006;SDS011;1513;47.650;10.720;2023-11-21T05:26:23;6.07;;;0.70;;
3006;SDS011;1513;47.650;10.720;2023-11-21T05:28:49;1.43;;;0.90;;
3006;SDS011;1513;47.650;10.720;2023-11-21T05:31:15;1.00;;;0.90;;
3006;SDS011;1513;47.650;10.720;2023-11-21T05:33:42;0.87;;;0.87;;
3006;SDS011;1513;47.650;10.720;2023-11-21T05:36:08;12.10;;;4.27;;
3006;SDS011;1513;47.650;10.720;2023-11-21T05:38:35;4.50;;;1.97;;
3006;SDS011;1513;47.650;10.720;2023-11-21T05:41:02;3.57;;;2.17;;
3006;SDS011;1513;47.650;10.720;2023-11-21T05:43:29;2.43;;;1.70;;
3006;SDS011;1513;47.650;10.720;2023-11-21T05:45:57;8.23;;;3.60;;
3006;SDS011;1513;47.650;10.720;2023-11-21T05:48:23;3.47;;;2.53;;
3006;SDS011;1513;47.650;10.720;2023-11-21T05:50:50;5.33;;;3.40;;
3006;SDS011;1513;47.650;10.720;2023-11-21T05:53:17;7.20;;;3.67;;
3006;SDS011;1513;47.650;10.720;2023-11-21T05:55:43;7.30;;;4.00;;
3006;SDS011;1513;47.650;10.720;2023-11-21T05:58:10;9.43;;;4.80;;
3006;SDS011;1513;47.650;10.720;2023-11-21T06:00:36;15.13;;;5.60;;
3006;SDS011;1513;47.650;10.720;2023-11-21T06:03:03;8.13;;;4.33;;
3006;SDS011;1513;47.650;10.720;2023-11-21T06:05:32;4.23;;;1.90;;
3006;SDS011;1513;47.650;10.720;2023-11-21T06:07:58;6.73;;;2.83;;
3006;SDS011;1513;47.650;10.720;2023-11-21T06:10:26;6.23;;;2.00;;
3006;SDS011;1513;47.650;10.720;2023-11-21T06:12:53;1.80;;;1.70;;
3006;SDS011;1513;47.650;10.720;2023-11-21T06:15:20;3.17;;;1.50;;
3006;SDS011;1513;47.650;10.720;2023-11-21T06:17:48;3.00;;;1.63;;
3006;SDS011;1513;47.650;10.720;2023-11-21T06:20:17;3.70;;;1.77;;
3006;SDS011;1513;47.650;10.720;2023-11-21T06:22:45;5.07;;;1.80;;
3006;SDS011;1513;47.650;10.720;2023-11-21T06:25:13;2.77;;;1.40;;
3006;SDS011;1513;47.650;10.720;2023-11-21T06:27:40;3.63;;;1.43;;
3006;SDS011;1513;47.650;10.720;2023-11-21T06:30:09;2.57;;;2.30;;
3006;SDS011;1513;47.650;10.720;2023-11-21T06:32:37;2.10;;;1.80;;
3006;SDS011;1513;47.650;10.720;2023-11-21T06:35:05;4.20;;;2.07;;
3006;SDS011;1513;47.650;10.720;2023-11-21T06:37:32;8.13;;;2.90;;
3006;SDS011;1513;47.650;10.720;2023-11-21T06:39:59;6.10;;;2.90;;
3006;SDS011;1513;47.650;10.720;2023-11-21T06:42:26;3.60;;;3.30;;
3006;SDS011;1513;47.650;10.720;2023-11-21T06:44:53;4.27;;;3.60;;
3006;SDS011;1513;47.650;10.720;2023-11-21T06:47:23;4.37;;;2.77;;
3006;SDS011;1513;47.650;10.720;2023-11-21T06:49:50;5.30;;;2.33;;
3006;SDS011;1513;47.650;10.720;2023-11-21T06:52:17;2.50;;;1.83;;
3006;SDS011;1513;47.650;10.720;2023-11-21T06:54:44;1.97;;;1.30;;
3006;SDS011;1513;47.650;10.720;2023-11-21T06:57:12;2.37;;;2.17;;
3006;SDS011;1513;47.650;10.720;2023-11-21T06:59:39;14.60;;;3.53;;
3006;SDS011;1513;47.650;10.720;2023-11-21T07:02:05;4.70;;;3.00;;
3006;SDS011;1513;47.650;10.720;2023-11-21T07:04:35;5.17;;;3.07;;
3006;SDS011;1513;47.650;10.720;2023-11-21T07:07:02;4.37;;;2.60;;
3006;SDS011;1513;47.650;10.720;2023-11-21T07:09:29;6.70;;;2.57;;
3006;SDS011;1513;47.650;10.720;2023-11-21T07:11:56;7.20;;;3.07;;
3006;SDS011;1513;47.650;10.720;2023-11-21T07:14:22;7.30;;;3.70;;
3006;SDS011;1513;47.650;10.720;2023-11-21T07:16:49;6.63;;;3.50;;
3006;SDS011;1513;47.650;10.720;2023-11-21T07:19:16;9.90;;;3.73;;
3006;SDS011;1513;47.650;10.720;2023-11-21T07:21:43;5.50;;;2.43;;
3006;SDS011;1513;47.650;10.720;2023-11-21T07:24:09;6.40;;;2.00;;
3006;SDS011;1513;47.650;10.720;2023-11-21T07:26:36;3.00;;;1.60;;
3006;SDS011;1513;47.650;10.720;2023-11-21T07:29:04;2.00;;;1.50;;
3006;SDS011;1513;47.650;10.720;2023-11-21T07:31:31;2.73;;;1.60;;
3006;SDS011;1513;47.650;10.720;2023-11-21T07:33:59;2.67;;;1.57;;
3006;SDS011;1513;47.650;10.720;2023-11-21T07:36:26;2.40;;;2.20;;
3006;SDS011;1513;47.650;10.720;2023-11-21T07:38:52;3.07;;;1.90;;
3006;SDS011;1513;47.650;10.720;2023-11-21T07:41:19;3.77;;;2.03;;
3006;SDS011;1513;47.650;10.720;2023-11-21T07:43:46;1.47;;;1.37;;
3006;SDS011;1513;47.650;10.720;2023-11-21T07:46:12;2.47;;;1.30;;
3006;SDS011;1513;47.650;10.720;2023-11-21T07:48:39;2.00;;;1.80;;
3006;SDS011;1513;47.650;10.720;2023-11-21T07:51:07;2.63;;;1.67;;
3006;SDS011;1513;47.650;10.720;2023-11-21T07:53:34;4.33;;;2.20;;
3006;SDS011;1513;47.650;10.720;2023-11-21T07:56:04;2.57;;;1.90;;
3006;SDS011;1513;47.650;10.720;2023-11-21T07:58:32;1.70;;;1.50;;
3006;SDS011;1513;47.650;10.720;2023-11-21T08:00:59;2.37;;;1.50;;
3006;SDS011;1513;47.650;10.720;2023-11-21T08:03:27;1.97;;;1.63;;
3006;SDS011;1513;47.650;10.720;2023-11-21T08:05:55;2.07;;;1.60;;
3006;SDS011;1513;47.650;10.720;2023-11-21T08:08:22;2.00;;;1.13;;
3006;SDS011;1513;47.650;10.720;2023-11-21T08:10:49;3.17;;;1.20;;
3006;SDS011;1513;47.650;10.720;2023-11-21T08:13:22;1.17;;;1.07;;
3006;SDS011;1513;47.650;10.720;2023-11-21T08:15:49;2.40;;;1.23;;
3006;SDS011;1513;47.650;10.720;2023-11-21T08:18:15;3.53;;;1.67;;
3006;SDS011;1513;47.650;10.720;2023-11-21T08:20:43;1.60;;;1.27;;
3006;SDS011;1513;47.650;10.720;2023-11-21T08:23:13;2.70;;;1.80;;
3006;SDS011;1513;47.650;10.720;2023-11-21T08:25:41;2.83;;;1.77;;
3006;SDS011;1513;47.650;10.720;2023-11-21T08:28:08;3.13;;;1.60;;
3006;SDS011;1513;47.650;10.720;2023-11-21T08:30:35;1.73;;;1.40;;
3006;SDS011;1513;47.650;10.720;2023-11-21T08:33:01;2.77;;;1.27;;
3006;SDS011;1513;47.650;10.720;2023-11-21T08:35:29;0.70;;;0.50;;
3006;SDS011;1513;47.650;10.720;2023-11-21T08:37:56;0.60;;;0.47;;
3006;SDS011;1513;47.650;10.720;2023-11-21T08:40:22;1.20;;;0.70;;
3006;SDS011;1513;47.650;10.720;2023-11-21T08:42:48;1.50;;;0.97;;
3006;SDS011;1513;47.650;10.720;2023-11-21T08:45:17;3.40;;;0.80;;
3006;SDS011;1513;47.650;10.720;2023-11-21T08:47:44;0.40;;;0.30;;
3006;SDS011;1513;47.650;10.720;2023-11-21T08:50:10;0.93;;;0.40;;
3006;SDS011;1513;47.650;10.720;2023-11-21T08:52:37;0.90;;;0.90;;
3006;SDS011;1513;47.650;10.720;2023-11-21T08:55:04;1.43;;;1.03;;
3006;SDS011;1513;47.650;10.720;2023-11-21T08:57:34;1.03;;;0.93;;
3006;SDS011;1513;47.650;10.720;2023-11-21T09:00:02;3.20;;;2.20;;
3006;SDS011;1513;47.650;10.720;2023-11-21T09:02:32;2.90;;;2.47;;
3006;SDS011;1513;47.650;10.720;2023-11-21T09:05:00;2.80;;;2.00;;
3006;SDS011;1513;47.650;10.720;2023-11-21T09:07:28;1.70;;;1.60;;
3006;SDS011;1513;47.650;10.720;2023-11-21T09:09:55;1.50;;;1.40;;
3006;SDS011;1513;47.650;10.720;2023-11-21T09:12:21;1.63;;;1.00;;
3006;SDS011;1513;47.650;10.720;2023-11-21T09:14:47;5.30;;;2.90;;
3006;SDS011;1513;47.650;10.720;2023-11-21T09:17:15;6.10;;;3.30;;
3006;SDS011;1513;47.650;10.720;2023-11-21T09:19:41;5.40;;;3.13;;
3006;SDS011;1513;47.650;10.720;2023-11-21T09:22:15;3.80;;;2.60;;
3006;SDS011;1513;47.650;10.720;2023-11-21T09:24:42;9.30;;;4.23;;
3006;SDS011;1513;47.650;10.720;2023-11-21T09:27:08;4.60;;;3.00;;
3006;SDS011;1513;47.650;10.720;2023-11-21T09:29:35;7.20;;;5.60;;
3006;SDS011;1513;47.650;10.720;2023-11-21T09:32:04;2.60;;;2.17;;
3006;SDS011;1513;47.650;10.720;2023-11-21T09:34:33;2.53;;;2.00;;
3006;SDS011;1513;47.650;10.720;2023-11-21T09:37:03;3.53;;;2.47;;
3006;SDS011;1513;47.650;10.720;2023-11-21T09:39:32;2.20;;;1.90;;
3006;SDS011;1513;47.650;10.720;2023-11-21T09:47:29;2.50;;;1.53;;
3006;SDS011;1513;47.650;10.720;2023-11-21T09:49:56;1.47;;;1.10;;
3006;SDS011;1513;47.650;10.720;2023-11-21T09:52:26;2.20;;;1.40;;
3006;SDS011;1513;47.650;10.720;2023-11-21T09:54:53;1.53;;;1.10;;
3006;SDS011;1513;47.650;10.720;2023-11-21T09:57:23;1.50;;;1.23;;
3006;SDS011;1513;47.650;10.720;2023-11-21T09:59:51;3.37;;;1.70;;
3006;SDS011;1513;47.650;10.720;2023-11-21T10:02:52;3.77;;;1.73;;
3006;SDS011;1513;47.650;10.720;2023-11-21T10:05:39;3.63;;;1.83;;
3006;SDS011;1513;47.650;10.720;2023-11-21T10:08:11;3.17;;;2.43;;
3006;SDS011;1513;47.650;10.720;2023-11-21T10:10:38;3.37;;;1.83;;
3006;SDS011;1513;47.650;10.720;2023-11-21T10:13:13;6.00;;;3.07;;
3006;SDS011;1513;47.650;10.720;2023-11-21T10:15:43;1.33;;;1.10;;
3006;SDS011;1513;47.650;10.720;2023-11-21T10:18:13;1.23;;;0.70;;
3006;SDS011;1513;47.650;10.720;2023-11-21T10:20:41;2.93;;;2.00;;
3006;SDS011;1513;47.650;10.720;2023-11-21T10:23:08;14.57;;;6.10;;
3006;SDS011;1513;47.650;10.720;2023-11-21T10:25:36;8.67;;;4.30;;
3006;SDS011;1513;47.650;10.720;2023-11-21T10:28:03;5.50;;;2.77;;
3006;SDS011;1513;47.650;10.720;2023-11-21T10:30:33;5.17;;;2.43;;
3006;SDS011;1513;47.650;10.720;2023-11-21T10:33:04;5.40;;;2.90;;
3006;SDS011;1513;47.650;10.720;2023-11-21T10:35:47;5.33;;;2.40;;
3006;SDS011;1513;47.650;10.720;2023-11-21T10:38:18;9.77;;;4.03;;
3006;SDS011;1513;47.650;10.720;2023-11-21T10:40:49;0.73;;;0.73;;
3006;SDS011;1513;47.650;10.720;2023-11-21T10:43:16;1.60;;;1.50;;
3006;SDS011;1513;47.650;10.720;2023-11-21T10:45:43;2.40;;;1.90;;
3006;SDS011;1513;47.650;10.720;2023-11-21T10:48:13;1.27;;;1.17;;
3006;SDS011;1513;47.650;10.720;2023-11-21T10:50:43;1.40;;;1.30;;
3006;SDS011;1513;47.650;10.720;2023-11-21T10:53:11;1.17;;;1.10;;
3006;SDS011;1513;47.650;10.720;2023-11-21T10:55:38;3.03;;;2.50;;
3006;SDS011;1513;47.650;10.720;2023-11-21T10:58:05;7.43;;;2.53;;
3006;SDS011;1513;47.650;10.720;2023-11-21T11:00:32;2.10;;;1.90;;
3006;SDS011;1513;47.650;10.720;2023-11-21T11:02:59;2.70;;;2.10;;
3006;SDS011;1513;47.650;10.720;2023-11-21T11:05:26;4.23;;;3.33;;
3006;SDS011;1513;47.650;10.720;2023-11-21T11:08:05;2.63;;;2.27;;
3006;SDS011;1513;47.650;10.720;2023-11-21T11:10:33;2.53;;;2.20;;
3006;SDS011;1513;47.650;10.720;2023-11-21T11:13:00;1.20;;;1.10;;
3006;SDS011;1513;47.650;10.720;2023-11-21T11:15:39;1.23;;;1.13;;
3006;SDS011;1513;47.650;10.720;2023-11-21T11:18:12;1.20;;;1.10;;
3006;SDS011;1513;47.650;10.720;2023-11-21T11:20:39;3.90;;;0.80;;
3006;SDS011;1513;47.650;10.720;2023-11-21T11:26:07;1.10;;;1.10;;
3006;SDS011;1513;47.650;10.720;2023-11-21T11:28:57;3.10;;;1.70;;
3006;SDS011;1513;47.650;10.720;2023-11-21T11:34:30;2.27;;;2.07;;
3006;SDS011;1513;47.650;10.720;2023-11-21T11:37:03;2.43;;;2.20;;
3006;SDS011;1513;47.650;10.720;2023-11-21T11:39:37;2.77;;;2.53;;
3006;SDS011;1513;47.650;10.720;2023-11-21T11:42:14;4.57;;;3.60;;
3006;SDS011;1513;47.650;10.720;2023-11-21T11:44:46;3.33;;;1.83;;
3006;SDS011;1513;47.650;10.720;2023-11-21T11:47:25;1.97;;;1.77;;
3006;SDS011;1513;47.650;10.720;2023-11-21T11:50:11;2.00;;;1.80;;
3006;SDS011;1513;47.650;10.720;2023-11-21T11:52:48;4.93;;;3.20;;
3006;SDS011;1513;47.650;10.720;2023-11-21T11:55:21;4.30;;;3.80;;
3006;SDS011;1513;47.650;10.720;2023-11-21T11:57:56;0.80;;;0.80;;
3006;SDS011;1513;47.650;10.720;2023-11-21T12:00:59;2.70;;;1.07;;
3006;SDS011;1513;47.650;10.720;2023-11-21T12:03:25;6.63;;;2.80;;
3006;SDS011;1513;47.650;10.720;2023-11-21T12:05:52;8.93;;;3.80;;
3006;SDS011;1513;47.650;10.720;2023-11-21T12:08:23;8.23;;;3.27;;
3006;SDS011;1513;47.650;10.720;2023-11-21T12:10:56;9.60;;;4.47;;
3006;SDS011;1513;47.650;10.720;2023-11-21T12:13:23;6.47;;;3.37;;
3006;SDS011;1513;47.650;10.720;2023-11-21T12:15:50;7.80;;;3.70;;
3006;SDS011;1513;47.650;10.720;2023-11-21T12:18:22;10.43;;;5.17;;
3006;SDS011;1513;47.650;10.720;2023-11-21T12:20:51;8.43;;;4.33;;
3006;SDS011;1513;47.650;10.720;2023-11-21T12:23:18;5.40;;;3.63;;
3006;SDS011;1513;47.650;10.720;2023-11-21T12:25:46;10.47;;;6.53;;
3006;SDS011;1513;47.650;10.720;2023-11-21T12:28:12;8.53;;;5.07;;
3006;SDS011;1513;47.650;10.720;2023-11-21T12:30:39;16.10;;;9.93;;
3006;SDS011;1513;47.650;10.720;2023-11-21T12:33:06;15.90;;;8.67;;
3006;SDS011;1513;47.650;10.720;2023-11-21T12:35:34;14.70;;;8.97;;
3006;SDS011;1513;47.650;10.720;2023-11-21T12:38:02;8.97;;;6.43;;
3006;SDS011;1513;47.650;10.720;2023-11-21T12:40:30;10.73;;;7.50;;
3006;SDS011;1513;47.650;10.720;2023-11-21T12:42:57;4.20;;;3.10;;
3006;SDS011;1513;47.650;10.720;2023-11-21T12:45:25;5.10;;;4.13;;
3006;SDS011;1513;47.650;10.720;2023-11-21T12:47:56;4.60;;;3.57;;
3006;SDS011;1513;47.650;10.720;2023-11-21T12:50:33;3.63;;;2.70;;
3006;SDS011;1513;47.650;10.720;2023-11-21T12:53:20;3.83;;;3.23;;
3006;SDS011;1513;47.650;10.720;2023-11-21T12:55:46;4.80;;;2.60;;
3006;SDS011;1513;47.650;10.720;2023-11-21T12:58:19;3.93;;;2.97;;
3006;SDS011;1513;47.650;10.720;2023-11-21T13:00:48;2.87;;;2.47;;
3006;SDS011;1513;47.650;10.720;2023-11-21T13:03:17;1.57;;;1.47;;
3006;SDS011;1513;47.650;10.720;2023-11-21T13:05:51;2.00;;;1.80;;
3006;SDS011;1513;47.650;10.720;2023-11-21T13:08:21;2.47;;;2.27;;
3006;SDS011;1513;47.650;10.720;2023-11-21T13:10:53;2.00;;;1.80;;
3006;SDS011;1513;47.650;10.720;2023-11-21T13:13:22;1.93;;;1.80;;
3006;SDS011;1513;47.650;10.720;2023-11-21T13:15:53;1.97;;;1.80;;
3006;SDS011;1513;47.650;10.720;2023-11-21T13:18:26;1.53;;;1.43;;
3006;SDS011;1513;47.650;10.720;2023-11-21T13:21:12;1.20;;;1.20;;
3006;SDS011;1513;47.650;10.720;2023-11-21T13:23:39;1.37;;;1.27;;
3006;SDS011;1513;47.650;10.720;2023-11-21T13:26:07;1.90;;;1.63;;
3006;SDS011;1513;47.650;10.720;2023-11-21T13:28:34;2.40;;;2.20;;
3006;SDS011;1513;47.650;10.720;2023-11-21T13:31:03;1.77;;;1.67;;
3006;SDS011;1513;47.650;10.720;2023-11-21T13:33:46;2.07;;;1.87;;
3006;SDS011;1513;47.650;10.720;2023-11-21T13:36:21;2.13;;;1.90;;
3006;SDS011;1513;47.650;10.720;2023-11-21T13:38:51;2.00;;;1.90;;
3006;SDS011;1513;47.650;10.720;2023-11-21T13:41:18;3.80;;;1.90;;
3006;SDS011;1513;47.650;10.720;2023-11-21T13:43:45;2.30;;;2.10;;
3006;SDS011;1513;47.650;10.720;2023-11-21T13:46:16;2.07;;;1.97;;
3006;SDS011;1513;47.650;10.720;2023-11-21T13:48:47;2.63;;;2.43;;
3006;SDS011;1513;47.650;10.720;2023-11-21T13:51:21;2.10;;;2.00;;
3006;SDS011;1513;47.650;10.720;2023-11-21T13:53:57;5.67;;;3.27;;
3006;SDS011;1513;47.650;10.720;2023-11-21T13:56:24;3.30;;;3.00;;
3006;SDS011;1513;47.650;10.720;2023-11-21T13:58:53;2.77;;;2.57;;
3006;SDS011;1513;47.650;10.720;2023-11-21T14:01:22;3.37;;;2.37;;
3006;SDS011;1513;47.650;10.720;2023-11-21T14:03:58;2.50;;;2.30;;
3006;SDS011;1513;47.650;10.720;2023-11-21T14:06:49;3.23;;;1.80;;
3006;SDS011;1513;47.650;10.720;2023-11-21T14:09:19;2.10;;;1.90;;
3006;SDS011;1513;47.650;10.720;2023-11-21T14:12:01;2.50;;;1.87;;
3006;SDS011;1513;47.650;10.720;2023-11-21T14:14:31;1.70;;;1.60;;
3006;SDS011;1513;47.650;10.720;2023-11-21T14:16:58;1.10;;;1.00;;
3006;SDS011;1513;47.650;10.720;2023-11-21T14:19:25;2.23;;;2.03;;
3006;SDS011;1513;47.650;10.720;2023-11-21T14:21:56;1.70;;;1.60;;
3006;SDS011;1513;47.650;10.720;2023-11-21T14:24:23;0.90;;;0.90;;
3006;SDS011;1513;47.650;10.720;2023-11-21T14:26:50;1.40;;;1.30;;
3006;SDS011;1513;47.650;10.720;2023-11-21T14:29:18;1.40;;;1.30;;
3006;SDS011;1513;47.650;10.720;2023-11-21T14:31:45;1.63;;;1.53;;
3006;SDS011;1513;47.650;10.720;2023-11-21T14:34:12;1.50;;;1.40;;
3006;SDS011;1513;47.650;10.720;2023-11-21T14:36:40;1.70;;;1.40;;
3006;SDS011;1513;47.650;10.720;2023-11-21T14:39:06;1.57;;;1.30;;
3006;SDS011;1513;47.650;10.720;2023-11-21T14:41:36;2.70;;;2.20;;
3006;SDS011;1513;47.650;10.720;2023-11-21T14:44:04;6.40;;;4.00;;
3006;SDS011;1513;47.650;10.720;2023-11-21T14:46:32;5.90;;;3.37;;
3006;SDS011;1513;47.650;10.720;2023-11-21T14:49:01;5.43;;;2.50;;
3006;SDS011;1513;47.650;10.720;2023-11-21T14:51:47;1.97;;;1.53;;
3006;SDS011;1513;47.650;10.720;2023-11-21T14:54:49;3.83;;;1.53;;
3006;SDS011;1513;47.650;10.720;2023-11-21T14:57:25;1.40;;;1.30;;
3006;SDS011;1513;47.650;10.720;2023-11-21T14:59:52;3.40;;;1.73;;
3006;SDS011;1513;47.650;10.720;2023-11-21T15:02:23;5.13;;;3.70;;
3006;SDS011;1513;47.650;10.720;2023-11-21T15:05:10;3.30;;;2.40;;
3006;SDS011;1513;47.650;10.720;2023-11-21T15:07:41;2.83;;;2.00;;
3006;SDS011;1513;47.650;10.720;2023-11-21T15:10:09;4.33;;;1.60;;
3006;SDS011;1513;47.650;10.720;2023-11-21T15:12:39;1.60;;;1.50;;
3006;SDS011;1513;47.650;10.720;2023-11-21T15:15:08;1.80;;;1.50;;
3006;SDS011;1513;47.650;10.720;2023-11-21T15:17:39;2.00;;;1.40;;
3006;SDS011;1513;47.650;10.720;2023-11-21T15:20:07;5.10;;;1.83;;
3006;SDS011;1513;47.650;10.720;2023-11-21T15:22:34;5.53;;;3.70;;